Ferry Kyoto2 — JI3701 — position and weather

sailwx.info

Track history (hours):
 
Tides and Currents Weather Stations Pressure Air Temp Water Temp Dewpoint Dewpoint Depression Visibility Wind Speed Wind Dir Waves Ship Positions

Ferry Kyoto2

Last reported at 2015-Jul-29 12:33 UTC. Time now 2015-Jul-30 12:11 UTC.
Position N 34°34' E 134°48'.

Length 167 m; draft 6.8 m.

Type: Passenger vessel. MMSI: 431301641.

Date/timePositionNaut miles runAvg speedWind from/ knotsBaromVisibWave heightAir tempDewpointWater temp
2015-Jul-29 12:33N 34°34' E 134°48'2121.5
2015-Jul-29 11:33N 34°37' E 135°14'10 9.8
2015-Jul-29 10:33N 34°37' E 135°26'0 0.0
2015-Jul-29 09:33N 34°37' E 135°26'0 0.0
2015-Jul-29 08:33N 34°37' E 135°26'0 0.0
2015-Jul-29 07:33N 34°37' E 135°26'0 0.0
2015-Jul-29 06:33N 34°37' E 135°26'0 0.0
2015-Jul-29 05:33N 34°37' E 135°26'0 0.0
2015-Jul-29 04:33N 34°37' E 135°26'0 0.0
2015-Jul-29 03:33N 34°37' E 135°26'0 0.0
2015-Jul-29 02:27N 34°37' E 135°26'0 0.0
2015-Jul-29 01:33N 34°37' E 135°26'0 0.0
2015-Jul-29 00:33N 34°37' E 135°26'0 0.0
2015-Jul-28 23:33N 34°37' E 135°26'1110.6
2015-Jul-28 22:33N 34°35' E 135°13'2019.7
2015-Jul-28 21:33N 34°33' E 134°49'1 0.0
2015-Jul-27 12:33N 34°34' E 134°49'2121.0
2015-Jul-27 11:33N 34°37' E 135°14'9 9.2
2015-Jul-27 10:32N 34°37' E 135°26'0 0.0
2015-Jul-27 09:26N 34°37' E 135°26'0 0.0
2015-Jul-27 08:32N 34°37' E 135°26'0 0.0
2015-Jul-27 07:32N 34°37' E 135°26'0 0.0
2015-Jul-27 06:32N 34°37' E 135°26'0 0.0
2015-Jul-27 05:32N 34°37' E 135°26'0 0.0
2015-Jul-27 04:32N 34°37' E 135°26'0 0.0
2015-Jul-27 03:32N 34°37' E 135°26'0 0.0
2015-Jul-27 02:26N 34°37' E 135°26'0 0.0
2015-Jul-27 01:32N 34°37' E 135°26'0 0.0
2015-Jul-27 00:20N 34°37' E 135°26'0 0.0
2015-Jul-26 23:32N 34°37' E 135°26'9 9.7
2015-Jul-26 22:34N 34°35' E 135°15'1918.7
2015-Jul-26 21:32N 34°34' E 134°52'2 0.1
2015-Jul-25 12:33N 34°34' E 134°49'2020.1
2015-Jul-25 11:33N 34°36' E 135°13'1110.7
2015-Jul-25 10:33N 34°37' E 135°26'0 0.0
2015-Jul-25 09:33N 34°37' E 135°26'0 0.0
2015-Jul-25 08:33N 34°37' E 135°26'0 0.0
2015-Jul-25 07:33N 34°37' E 135°26'0 0.0
2015-Jul-25 06:33N 34°37' E 135°26'0 0.0
2015-Jul-25 05:33N 34°37' E 135°26'1111.0
2015-Jul-25 04:33N 34°31' E 135°15'1514.6
2015-Jul-25 03:33N 34°37' E 134°59'1514.9
2015-Jul-25 02:34N 34°37' E 135°17'7 5.9
2015-Jul-25 01:20N 34°37' E 135°26'0 0.0
2015-Jul-25 00:32N 34°37' E 135°26'0 0.0
2015-Jul-24 23:32N 34°37' E 135°26'10 9.9
2015-Jul-24 22:33N 34°35' E 135°14'2019.1
2015-Jul-24 21:31N 34°33' E 134°50'1 0.0
2015-Jul-23 12:32N 34°34' E 134°49'2020.2
2015-Jul-23 11:33N 34°36' E 135°13'1110.0
2015-Jul-23 10:30N 34°37' E 135°26'0 0.0
2015-Jul-23 09:30N 34°37' E 135°26'0 0.0
2015-Jul-23 08:30N 34°37' E 135°26'0 0.0
2015-Jul-23 07:30N 34°37' E 135°26'0 0.0
2015-Jul-23 06:30N 34°37' E 135°26'0 0.0
2015-Jul-23 05:30N 34°37' E 135°26'0 0.0
2015-Jul-23 04:30N 34°37' E 135°26'0 0.0
2015-Jul-23 03:24N 34°37' E 135°26'0 0.0
2015-Jul-23 02:18N 34°37' E 135°26'0 0.0
2015-Jul-23 01:24N 34°37' E 135°26'0 0.0
2015-Jul-23 00:30N 34°37' E 135°26'0 0.0
2015-Jul-22 23:33N 34°37' E 135°26'10 9.8
2015-Jul-22 22:33N 34°34' E 135°15'1919.4
2015-Jul-22 21:33N 34°34' E 134°51'2 0.1
2015-Jul-21 12:33N 34°34' E 134°49'2020.4
2015-Jul-21 11:33N 34°36' E 135°13'10 9.7
2015-Jul-21 10:29N 34°37' E 135°26'0 0.0
2015-Jul-21 09:23N 34°37' E 135°26'0 0.0
2015-Jul-21 08:29N 34°37' E 135°26'0 0.0
2015-Jul-21 07:29N 34°37' E 135°26'0 0.0
2015-Jul-21 06:29N 34°37' E 135°26'0 0.0
2015-Jul-21 05:29N 34°37' E 135°26'0 0.0
2015-Jul-21 04:23N 34°37' E 135°26'0 0.0
2015-Jul-21 03:29N 34°37' E 135°26'0 0.0
2015-Jul-21 02:11N 34°37' E 135°26'0 0.0
2015-Jul-21 01:29N 34°37' E 135°26'0 0.0
2015-Jul-21 00:23N 34°37' E 135°26'0 0.0
2015-Jul-20 23:32N 34°37' E 135°26'1111.0
2015-Jul-20 22:33N 34°32' E 135°14'1918.1
2015-Jul-20 21:32N 34°35' E 134°52'43 1.4
2015-Jul-19 14:32N 34°26' E 134°01'  
Track history (hours):
 
Tides and Currents Weather Stations Pressure Air Temp Water Temp Dewpoint Dewpoint Depression Visibility Wind Speed Wind Dir Waves Ship Positions

Ferry Kyoto2

Last reported at 2015-Jul-29 12:33 UTC. Time now 2015-Jul-30 12:11 UTC.
Position N 34°34' E 134°48'.

Length 167 m; draft 6.8 m.

Type: Passenger vessel. MMSI: 431301641.

Date/timePositionNaut miles runAvg speedWind from/ knotsBaromVisibWave heightAir tempDewpointWater temp
2015-Jul-29 12:33N 34°34' E 134°48'2121.5
2015-Jul-29 11:33N 34°37' E 135°14'10 9.8
2015-Jul-29 10:33N 34°37' E 135°26'0 0.0
2015-Jul-29 09:33N 34°37' E 135°26'0 0.0
2015-Jul-29 08:33N 34°37' E 135°26'0 0.0
2015-Jul-29 07:33N 34°37' E 135°26'0 0.0
2015-Jul-29 06:33N 34°37' E 135°26'0 0.0
2015-Jul-29 05:33N 34°37' E 135°26'0 0.0
2015-Jul-29 04:33N 34°37' E 135°26'0 0.0
2015-Jul-29 03:33N 34°37' E 135°26'0 0.0
2015-Jul-29 02:27N 34°37' E 135°26'0 0.0
2015-Jul-29 01:33N 34°37' E 135°26'0 0.0
2015-Jul-29 00:33N 34°37' E 135°26'0 0.0
2015-Jul-28 23:33N 34°37' E 135°26'1110.6
2015-Jul-28 22:33N 34°35' E 135°13'2019.7
2015-Jul-28 21:33N 34°33' E 134°49'1 0.0
2015-Jul-27 12:33N 34°34' E 134°49'2121.0
2015-Jul-27 11:33N 34°37' E 135°14'9 9.2
2015-Jul-27 10:32N 34°37' E 135°26'0 0.0
2015-Jul-27 09:26N 34°37' E 135°26'0 0.0
2015-Jul-27 08:32N 34°37' E 135°26'0 0.0
2015-Jul-27 07:32N 34°37' E 135°26'0 0.0
2015-Jul-27 06:32N 34°37' E 135°26'0 0.0
2015-Jul-27 05:32N 34°37' E 135°26'0 0.0
2015-Jul-27 04:32N 34°37' E 135°26'0 0.0
2015-Jul-27 03:32N 34°37' E 135°26'0 0.0
2015-Jul-27 02:26N 34°37' E 135°26'0 0.0
2015-Jul-27 01:32N 34°37' E 135°26'0 0.0
2015-Jul-27 00:20N 34°37' E 135°26'0 0.0
2015-Jul-26 23:32N 34°37' E 135°26'9 9.7
2015-Jul-26 22:34N 34°35' E 135°15'1918.7
2015-Jul-26 21:32N 34°34' E 134°52'2 0.1
2015-Jul-25 12:33N 34°34' E 134°49'2020.1
2015-Jul-25 11:33N 34°36' E 135°13'1110.7
2015-Jul-25 10:33N 34°37' E 135°26'0 0.0
2015-Jul-25 09:33N 34°37' E 135°26'0 0.0
2015-Jul-25 08:33N 34°37' E 135°26'0 0.0
2015-Jul-25 07:33N 34°37' E 135°26'0 0.0
2015-Jul-25 06:33N 34°37' E 135°26'0 0.0
2015-Jul-25 05:33N 34°37' E 135°26'1111.0
2015-Jul-25 04:33N 34°31' E 135°15'1514.6
2015-Jul-25 03:33N 34°37' E 134°59'1514.9
2015-Jul-25 02:34N 34°37' E 135°17'7 5.9
2015-Jul-25 01:20N 34°37' E 135°26'0 0.0
2015-Jul-25 00:32N 34°37' E 135°26'0 0.0
2015-Jul-24 23:32N 34°37' E 135°26'10 9.9
2015-Jul-24 22:33N 34°35' E 135°14'2019.1
2015-Jul-24 21:31N 34°33' E 134°50'1 0.0
2015-Jul-23 12:32N 34°34' E 134°49'2020.2
2015-Jul-23 11:33N 34°36' E 135°13'1110.0
2015-Jul-23 10:30N 34°37' E 135°26'0 0.0
2015-Jul-23 09:30N 34°37' E 135°26'0 0.0
2015-Jul-23 08:30N 34°37' E 135°26'0 0.0
2015-Jul-23 07:30N 34°37' E 135°26'0 0.0
2015-Jul-23 06:30N 34°37' E 135°26'0 0.0
2015-Jul-23 05:30N 34°37' E 135°26'0 0.0
2015-Jul-23 04:30N 34°37' E 135°26'0 0.0
2015-Jul-23 03:24N 34°37' E 135°26'0 0.0
2015-Jul-23 02:18N 34°37' E 135°26'0 0.0
2015-Jul-23 01:24N 34°37' E 135°26'0 0.0
2015-Jul-23 00:30N 34°37' E 135°26'0 0.0
2015-Jul-22 23:33N 34°37' E 135°26'10 9.8
2015-Jul-22 22:33N 34°34' E 135°15'1919.4
2015-Jul-22 21:33N 34°34' E 134°51'2 0.1
2015-Jul-21 12:33N 34°34' E 134°49'2020.4
2015-Jul-21 11:33N 34°36' E 135°13'10 9.7
2015-Jul-21 10:29N 34°37' E 135°26'0 0.0
2015-Jul-21 09:23N 34°37' E 135°26'0 0.0
2015-Jul-21 08:29N 34°37' E 135°26'0 0.0
2015-Jul-21 07:29N 34°37' E 135°26'0 0.0
2015-Jul-21 06:29N 34°37' E 135°26'0 0.0
2015-Jul-21 05:29N 34°37' E 135°26'0 0.0
2015-Jul-21 04:23N 34°37' E 135°26'0 0.0
2015-Jul-21 03:29N 34°37' E 135°26'0 0.0
2015-Jul-21 02:11N 34°37' E 135°26'0 0.0
2015-Jul-21 01:29N 34°37' E 135°26'0 0.0
2015-Jul-21 00:23N 34°37' E 135°26'0 0.0
2015-Jul-20 23:32N 34°37' E 135°26'1111.0
2015-Jul-20 22:33N 34°32' E 135°14'1918.1
2015-Jul-20 21:32N 34°35' E 134°52'43 1.4
2015-Jul-19 14:32N 34°26' E 134°01'  

Dump ship's entire track history